FTTD

Moundou Airport

Chad
METAR FTTD 201200Z 12010KT 9999 FEW040 37/23 Q1010
Observed Flight Rules
Oct-20 @ 12:00 UTC (52 minutes ago) Visual Flight Rules
Wind Visibility Clouds
120° at 10 knots 10,000+ meters
  • Few at 4,000' AGL
Temperatures Readings
Current 37°C / 99°F
Dewpoint 23°C / 73°F
Humidity 44%
Altimeter 29.82" Hg
Pressure 1010 hPa
Elevation 422
METAR FTTD 201200Z 12010KT 9999 FEW040 37/23 Q1010
Observed Flight Rules
Oct-20 @ 12:00 UTC
(52 minutes ago)
VFR
Wind Visibility
120° at 10 knots 10,000+ meters
Clouds
  • Few at 4,000' AGL
Temperature Dewpoint
37°C / 99°F 23°C / 73°F
Humidity Altimeter Pressure
44% 29.82" Hg 1010 hPa